Nearby METAR Reports

 

KRDU - Raleigh/Durham, North Carolina, USA
Distance from station: NNW 20mi, 33km
Updated: Tue, 04-Aug-2020 2:51pm EDT
Mostly cloudy
Mostly cloudy
 Wind from SW
Wind: SW 15 mph , 24 km/h
Temperature: 86°F , 30°C
Heat Index: 92°F , 33°C
Dew Point: 72°F , 22°C
Humidity: 62%
Barometer: 29.95 inHg , 1014.2 hPa
Clouds: Mostly cloudy
Visibility: 10 miles , 16 km
Cloud details: Mostly cloudy 3800 ft
2020/08/04 18:51 KRDU 041851Z 23013KT 10SM BKN038 30/22 A2995 RMK AO2 SLP137 T03000217
KJNX - Smithfield Johns, North Carolina, USA
Distance from station: ESE 17mi, 28km
Updated: Tue, 04-Aug-2020 3:35pm EDT
Partly cloudy
Partly cloudy
 Wind from SSW
Wind: SSW 8 mph , 13 km/h
Temperature: 86°F , 30°C
Heat Index: 92°F , 33°C
Dew Point: 72°F , 22°C
Humidity: 62%
Barometer: 29.93 inHg , 1013.5 hPa
Clouds: Partly cloudy
Visibility: 10 miles , 16 km
Cloud details: Partly cloudy 3900 ft
2020/08/04 19:35 KJNX 041935Z AUTO 21007KT 10SM SCT039 30/22 A2993 RMK AO2
 
KLHZ - Louisburg/Frankl, North Carolina, USA
Distance from station: NE 33mi, 54km
Updated: Tue, 04-Aug-2020 3:35pm EDT
Mostly cloudy
Mostly cloudy
 Wind from SW
Wind: SW 7 mph , 11 km/h
Temperature: 84°F , 29°C
Heat Index: 89°F , 32°C
Dew Point: 72°F , 22°C
Humidity: 66%
Barometer: 29.97 inHg , 1014.9 hPa
Clouds: Mostly cloudy
Visibility: 10 miles , 16 km
Cloud details: Partly cloudy 4100 ft
Partly cloudy 5000 ft
Mostly cloudy 6500 ft
2020/08/04 19:35 KLHZ 041935Z AUTO 23006KT 10SM SCT041 SCT050 BKN065 29/22 A2997 RMK AO2
KPOB - Pope Afb, North Carolina, USA
Distance from station: SSW 37mi, 59km
Updated: Tue, 04-Aug-2020 3:20pm EDT
Mostly cloudy
Mostly cloudy
 Wind from WSW
Wind: WSW 10 mph , 17 km/h
Temperature: 88°F , 31°C
Heat Index: 93°F , 34°C
Dew Point: 70°F , 21°C
Humidity: 55%
Barometer: 29.94 inHg , 1013.9 hPa
Clouds: Mostly cloudy
Visibility: 10 miles , 16 km
Cloud details: Mostly cloudy 4000 ft
2020/08/04 19:20 KPOB 041920Z 24009KT 10SM BKN040 31/21 A2994 RMK SLP140
 
KSCR - Siler City, North Carolina, USA
Distance from station: W 47mi, 75km
Updated: Tue, 04-Aug-2020 3:15pm EDT
Partly cloudy
Partly cloudy
 Wind from SSW
Wind: SSW 9 mph , 15 km/h
Temperature: 84°F , 29°C
Heat Index: 87°F , 31°C
Dew Point: 68°F , 20°C
Humidity: 58%
Barometer: 29.96 inHg , 1014.6 hPa
Clouds: Partly cloudy
Visibility: 10 miles , 16 km
Cloud details: Partly cloudy 3500 ft
Partly cloudy 4100 ft
Partly cloudy 4800 ft
2020/08/04 19:15 KSCR 041915Z AUTO 21008KT 10SM SCT035 SCT041 SCT048 29/20 A2996 RMK AO2 T02930203
KTDF - Roxboro Person, North Carolina, USA
Distance from station: NNW 49mi, 79km
Updated: Tue, 04-Aug-2020 3:15pm EDT
Partly cloudy
Partly cloudy
 Wind from SSW
Wind: SSW 12 mph , 19 km/h
Temperature: 84°F , 29°C
Heat Index: 87°F , 31°C
Dew Point: 68°F , 20°C
Humidity: 58%
Barometer: 29.96 inHg , 1014.6 hPa
Clouds: Partly cloudy
Visibility: 10 miles , 16 km
Cloud details: Partly cloudy 4200 ft
Partly cloudy 5000 ft
2020/08/04 19:15 KTDF 041915Z AUTO 21010KT 10SM SCT042 SCT050 29/20 A2996 RMK AO2
 
KSOP - Southern Pines, North Carolina, USA
Distance from station: SW 50mi, 80km
Updated: Tue, 04-Aug-2020 2:56pm EDT
Few Clouds
Few Clouds
 Wind from SW
Wind: SW 10 mph , 17 km/h
Temperature: 88°F , 31°C
Heat Index: 93°F , 34°C
Dew Point: 70°F , 21°C
Humidity: 55%
Barometer: 29.97 inHg , 1014.9 hPa
Clouds: Few Clouds
Visibility: 10 miles , 16 km
Cloud details: Few Clouds 3600 ft
2020/08/04 18:56 KSOP 041856Z AUTO 22009KT 10SM FEW036 31/21 A2997 RMK AO2 SLP148 T03060211 PNO $
KHNZ - Henderson/Oxford, North Carolina, USA
Distance from station: N 52mi, 84km
Updated: Tue, 04-Aug-2020 3:35pm EDT
Clear
Clear
 Wind from WSW
Wind: WSW 7 mph , 11 km/h
Temperature: 84°F , 29°C
Heat Index: 87°F , 31°C
Dew Point: 68°F , 20°C
Humidity: 58%
Barometer: 29.93 inHg , 1013.5 hPa
Clouds: Clear
Visibility: 10 miles , 16 km
2020/08/04 19:35 KHNZ 041935Z AUTO 25006KT 10SM CLR 29/20 A2993 RMK AO2 T02930200
 
KBUY - Burlington, North Carolina, USA
Distance from station: NW 54mi, 86km
Updated: Tue, 04-Aug-2020 2:54pm EDT
Clear
Clear
 Wind from SW
Wind: SW 10 mph , 17 km/h
Temperature: 88°F , 31°C
Heat Index: 91°F , 33°C
Dew Point: 66°F , 19°C
Humidity: 49%
Barometer: 29.94 inHg , 1013.9 hPa
Clouds: Clear
Visibility: 10 miles , 16 km
2020/08/04 18:54 KBUY 041854Z AUTO 22009KT 10SM CLR 31/19 A2994 RMK AO2 SLP132 T03110194
KTNB - Boone Watauga Ct, North Carolina, USA
Distance from station: SE 2mi, 3km
Updated: Tue, 04-Aug-2020 3:35pm EDT

 Wind from NNW
Wind: NNW 12 mph , 19 km/h
Temperature: 77°F , 25°C
Dew Point: 57°F , 14°C
Humidity: 51%
Barometer: 30.08 inHg , 1018.6 hPa
Visibility: 10 miles , 16 km
2020/08/04 19:35 KTNB 041935Z AUTO 33010KT 10SM 25/14 A3008 RMK AO2 T02500142
 
KGEV - Jefferson, North Carolina, USA
Distance from station: NE 21mi, 33km
Updated: Tue, 04-Aug-2020 3:35pm EDT
Partly cloudy
Partly cloudy
 Wind from WNW
Wind: WNW 8 mph , 13 km/h
Temperature: 77°F , 25°C
Dew Point: 59°F , 15°C
Humidity: 54%
Barometer: 30.07 inHg , 1018.3 hPa
Clouds: Partly cloudy
Visibility: 10 miles , 16 km
Cloud details: Partly cloudy 4200 ft
Partly cloudy 5000 ft
Partly cloudy 6500 ft
2020/08/04 19:35 KGEV 041935Z AUTO 29007KT 230V300 10SM SCT042 SCT050 SCT065 25/15 A3007 RMK AO2 T02470152
KFQD - Rutherfordton, North Carolina, USA
Distance from station: SSW 57mi, 92km
Updated: Mon, 03-Aug-2020 7:35am EDT
NOT Current
Nearby thunderstorm, Overcast
Nearby thunderstorm, Overcast
 Wind from calm
Wind: Calm
Temperature: 70°F , 21°C
Dew Point: 70°F , 21°C
Humidity: 100%
Barometer: 30.06 inHg , 1017.9 hPa
Summary: Nearby Thunderstorm
Clouds: Overcast
Visibility: 10 miles , 16 km
Cloud details: Mostly cloudy 1600 ft
Mostly cloudy 2500 ft
Overcast 3300 ft
2020/08/03 11:35 KFQD 031135Z AUTO 00000KT 10SM VCTS BKN016 BKN025 OVC033 21/21 A3006 RMK AO2 LTG DSNT SW THRU NW
 
KAVL - Asheville, North Carolina, USA
Distance from station: SW 72mi, 117km
Updated: Tue, 04-Aug-2020 2:54pm EDT
Few Clouds
Few Clouds
 Wind from calm
Wind: Calm
Temperature: 82°F , 28°C
Heat Index: 84°F , 29°C
Dew Point: 64°F , 18°C
Humidity: 55%
Barometer: 30.03 inHg , 1016.9 hPa
Clouds: Few Clouds
Visibility: 10 miles , 16 km
Cloud details: Few Clouds 4500 ft
Few Clouds 12000 ft
2020/08/04 18:54 KAVL 041854Z 00000KT 10SM FEW045 FEW120 28/18 A3003 RMK AO2 SLP140 T02830178